sensor_id;sensor_type;location;lat;lon;timestamp;P1;durP1;ratioP1;P2;durP2;ratioP2
63259;SDS011;49390;51.380;0.098;2022-09-09T00:07:03;20.70;;;5.18;;
63259;SDS011;49390;51.380;0.098;2022-09-09T00:12:57;18.05;;;5.13;;
63259;SDS011;49390;51.380;0.098;2022-09-09T00:16:00;19.38;;;5.28;;
63259;SDS011;49390;51.380;0.098;2022-09-09T00:19:01;19.73;;;5.18;;
63259;SDS011;49390;51.380;0.098;2022-09-09T00:21:36;21.10;;;5.20;;
63259;SDS011;49390;51.380;0.098;2022-09-09T00:24:22;21.40;;;6.38;;
63259;SDS011;49390;51.380;0.098;2022-09-09T00:27:01;14.15;;;5.13;;
63259;SDS011;49390;51.380;0.098;2022-09-09T00:29:42;20.00;;;5.05;;
63259;SDS011;49390;51.380;0.098;2022-09-09T00:32:16;20.10;;;5.15;;
63259;SDS011;49390;51.380;0.098;2022-09-09T00:34:47;14.43;;;5.95;;
63259;SDS011;49390;51.380;0.098;2022-09-09T00:37:44;16.65;;;5.13;;
63259;SDS011;49390;51.380;0.098;2022-09-09T00:40:18;14.88;;;5.45;;
63259;SDS011;49390;51.380;0.098;2022-09-09T00:43:21;23.98;;;5.65;;
63259;SDS011;49390;51.380;0.098;2022-09-09T00:45:56;18.10;;;5.38;;
63259;SDS011;49390;51.380;0.098;2022-09-09T00:56:46;20.13;;;5.75;;
63259;SDS011;49390;51.380;0.098;2022-09-09T01:02:13;22.05;;;5.75;;
63259;SDS011;49390;51.380;0.098;2022-09-09T01:04:49;16.92;;;6.13;;
63259;SDS011;49390;51.380;0.098;2022-09-09T01:07:18;16.77;;;6.10;;
63259;SDS011;49390;51.380;0.098;2022-09-09T01:12:29;23.65;;;6.60;;
63259;SDS011;49390;51.380;0.098;2022-09-09T01:15:19;20.58;;;6.18;;
63259;SDS011;49390;51.380;0.098;2022-09-09T01:26:41;22.17;;;6.30;;
63259;SDS011;49390;51.380;0.098;2022-09-09T01:29:24;19.40;;;6.70;;
63259;SDS011;49390;51.380;0.098;2022-09-09T01:31:55;25.85;;;7.18;;
63259;SDS011;49390;51.380;0.098;2022-09-09T01:34:36;22.65;;;6.78;;
63259;SDS011;49390;51.380;0.098;2022-09-09T01:37:10;18.05;;;6.38;;
63259;SDS011;49390;51.380;0.098;2022-09-09T01:39:41;25.30;;;7.47;;
63259;SDS011;49390;51.380;0.098;2022-09-09T01:42:15;19.63;;;6.90;;
63259;SDS011;49390;51.380;0.098;2022-09-09T01:44:45;20.20;;;6.63;;
63259;SDS011;49390;51.380;0.098;2022-09-09T01:47:14;27.88;;;7.47;;
63259;SDS011;49390;51.380;0.098;2022-09-09T01:50:03;21.20;;;6.43;;
63259;SDS011;49390;51.380;0.098;2022-09-09T01:52:32;24.10;;;6.90;;
63259;SDS011;49390;51.380;0.098;2022-09-09T01:55:07;16.65;;;6.63;;
63259;SDS011;49390;51.380;0.098;2022-09-09T02:00:55;19.58;;;6.95;;
63259;SDS011;49390;51.380;0.098;2022-09-09T02:03:35;23.08;;;7.00;;
63259;SDS011;49390;51.380;0.098;2022-09-09T02:06:28;18.30;;;6.20;;
63259;SDS011;49390;51.380;0.098;2022-09-09T02:09:19;18.13;;;5.45;;
63259;SDS011;49390;51.380;0.098;2022-09-09T02:11:53;18.48;;;5.60;;
63259;SDS011;49390;51.380;0.098;2022-09-09T02:17:17;18.73;;;5.47;;
63259;SDS011;49390;51.380;0.098;2022-09-09T02:20:00;16.83;;;4.78;;
63259;SDS011;49390;51.380;0.098;2022-09-09T02:22:41;11.45;;;3.97;;
63259;SDS011;49390;51.380;0.098;2022-09-09T02:25:15;14.85;;;3.90;;
63259;SDS011;49390;51.380;0.098;2022-09-09T02:27:47;11.32;;;4.03;;
63259;SDS011;49390;51.380;0.098;2022-09-09T02:30:18;17.95;;;4.43;;
63259;SDS011;49390;51.380;0.098;2022-09-09T02:32:56;11.32;;;4.32;;
63259;SDS011;49390;51.380;0.098;2022-09-09T02:35:40;15.43;;;4.43;;
63259;SDS011;49390;51.380;0.098;2022-09-09T02:38:12;14.55;;;4.53;;
63259;SDS011;49390;51.380;0.098;2022-09-09T02:40:51;14.55;;;5.00;;
63259;SDS011;49390;51.380;0.098;2022-09-09T02:43:19;19.92;;;5.88;;
63259;SDS011;49390;51.380;0.098;2022-09-09T02:45:59;18.27;;;5.10;;
63259;SDS011;49390;51.380;0.098;2022-09-09T02:49:11;19.42;;;5.50;;
63259;SDS011;49390;51.380;0.098;2022-09-09T02:54:29;23.00;;;6.90;;
63259;SDS011;49390;51.380;0.098;2022-09-09T02:57:04;21.23;;;6.20;;
63259;SDS011;49390;51.380;0.098;2022-09-09T02:59:39;14.93;;;6.10;;
63259;SDS011;49390;51.380;0.098;2022-09-09T03:02:08;19.27;;;6.35;;
63259;SDS011;49390;51.380;0.098;2022-09-09T03:04:39;22.35;;;6.70;;
63259;SDS011;49390;51.380;0.098;2022-09-09T03:07:09;20.70;;;5.68;;
63259;SDS011;49390;51.380;0.098;2022-09-09T03:09:37;19.83;;;6.10;;
63259;SDS011;49390;51.380;0.098;2022-09-09T03:12:05;19.73;;;5.93;;
63259;SDS011;49390;51.380;0.098;2022-09-09T03:14:35;22.70;;;6.70;;
63259;SDS011;49390;51.380;0.098;2022-09-09T03:17:06;25.92;;;6.45;;
63259;SDS011;49390;51.380;0.098;2022-09-09T03:19:44;23.35;;;5.72;;
63259;SDS011;49390;51.380;0.098;2022-09-09T03:22:13;19.98;;;6.20;;
63259;SDS011;49390;51.380;0.098;2022-09-09T03:24:43;18.38;;;6.65;;
63259;SDS011;49390;51.380;0.098;2022-09-09T03:27:11;23.70;;;6.32;;
63259;SDS011;49390;51.380;0.098;2022-09-09T03:29:41;21.25;;;7.32;;
63259;SDS011;49390;51.380;0.098;2022-09-09T03:32:13;19.63;;;6.43;;
63259;SDS011;49390;51.380;0.098;2022-09-09T03:34:42;21.73;;;5.82;;
63259;SDS011;49390;51.380;0.098;2022-09-09T03:37:13;16.30;;;6.15;;
63259;SDS011;49390;51.380;0.098;2022-09-09T03:39:41;19.35;;;6.18;;
63259;SDS011;49390;51.380;0.098;2022-09-09T03:42:12;21.73;;;7.13;;
63259;SDS011;49390;51.380;0.098;2022-09-09T03:44:41;18.80;;;6.63;;
63259;SDS011;49390;51.380;0.098;2022-09-09T03:47:10;29.90;;;7.75;;
63259;SDS011;49390;51.380;0.098;2022-09-09T03:49:37;22.50;;;6.68;;
63259;SDS011;49390;51.380;0.098;2022-09-09T03:52:06;20.08;;;6.93;;
63259;SDS011;49390;51.380;0.098;2022-09-09T03:54:36;20.73;;;7.18;;
63259;SDS011;49390;51.380;0.098;2022-09-09T03:59:25;20.00;;;6.75;;
63259;SDS011;49390;51.380;0.098;2022-09-09T04:01:54;20.67;;;6.28;;
63259;SDS011;49390;51.380;0.098;2022-09-09T04:04:22;22.90;;;7.55;;
63259;SDS011;49390;51.380;0.098;2022-09-09T04:06:50;24.50;;;7.15;;
63259;SDS011;49390;51.380;0.098;2022-09-09T04:09:20;24.83;;;7.57;;
63259;SDS011;49390;51.380;0.098;2022-09-09T04:11:50;26.48;;;7.18;;
63259;SDS011;49390;51.380;0.098;2022-09-09T04:14:17;28.30;;;7.95;;
63259;SDS011;49390;51.380;0.098;2022-09-09T04:16:47;20.75;;;6.68;;
63259;SDS011;49390;51.380;0.098;2022-09-09T04:19:15;21.83;;;7.43;;
63259;SDS011;49390;51.380;0.098;2022-09-09T04:21:44;24.77;;;6.95;;
63259;SDS011;49390;51.380;0.098;2022-09-09T04:24:12;23.10;;;7.43;;
63259;SDS011;49390;51.380;0.098;2022-09-09T04:26:43;21.13;;;7.32;;
63259;SDS011;49390;51.380;0.098;2022-09-09T04:29:13;24.48;;;8.70;;
63259;SDS011;49390;51.380;0.098;2022-09-09T04:31:41;24.05;;;6.55;;
63259;SDS011;49390;51.380;0.098;2022-09-09T04:34:10;22.73;;;7.05;;
63259;SDS011;49390;51.380;0.098;2022-09-09T04:36:38;27.30;;;8.13;;
63259;SDS011;49390;51.380;0.098;2022-09-09T04:39:08;24.33;;;7.53;;
63259;SDS011;49390;51.380;0.098;2022-09-09T04:41:37;21.77;;;7.25;;
63259;SDS011;49390;51.380;0.098;2022-09-09T04:44:05;17.98;;;6.90;;
63259;SDS011;49390;51.380;0.098;2022-09-09T04:46:33;20.80;;;7.82;;
63259;SDS011;49390;51.380;0.098;2022-09-09T04:49:01;22.17;;;8.45;;
63259;SDS011;49390;51.380;0.098;2022-09-09T04:51:31;23.45;;;8.50;;
63259;SDS011;49390;51.380;0.098;2022-09-09T04:53:59;30.75;;;8.38;;
63259;SDS011;49390;51.380;0.098;2022-09-09T04:56:27;21.33;;;8.00;;
63259;SDS011;49390;51.380;0.098;2022-09-09T04:58:57;22.23;;;7.30;;
63259;SDS011;49390;51.380;0.098;2022-09-09T05:01:36;23.30;;;8.10;;
63259;SDS011;49390;51.380;0.098;2022-09-09T05:04:09;21.40;;;7.85;;
63259;SDS011;49390;51.380;0.098;2022-09-09T05:06:37;18.70;;;7.53;;
63259;SDS011;49390;51.380;0.098;2022-09-09T05:09:06;20.10;;;7.72;;
63259;SDS011;49390;51.380;0.098;2022-09-09T05:11:34;21.55;;;7.25;;
63259;SDS011;49390;51.380;0.098;2022-09-09T05:14:20;23.80;;;7.43;;
63259;SDS011;49390;51.380;0.098;2022-09-09T05:16:51;23.63;;;7.75;;
63259;SDS011;49390;51.380;0.098;2022-09-09T05:19:21;18.38;;;7.72;;
63259;SDS011;49390;51.380;0.098;2022-09-09T05:21:51;24.58;;;7.68;;
63259;SDS011;49390;51.380;0.098;2022-09-09T05:24:26;25.75;;;8.80;;
63259;SDS011;49390;51.380;0.098;2022-09-09T05:26:57;24.48;;;8.27;;
63259;SDS011;49390;51.380;0.098;2022-09-09T05:29:27;26.75;;;8.63;;
63259;SDS011;49390;51.380;0.098;2022-09-09T05:31:56;27.73;;;9.85;;
63259;SDS011;49390;51.380;0.098;2022-09-09T05:34:25;31.35;;;10.43;;
63259;SDS011;49390;51.380;0.098;2022-09-09T05:36:54;28.42;;;10.05;;
63259;SDS011;49390;51.380;0.098;2022-09-09T05:39:24;34.90;;;11.38;;
63259;SDS011;49390;51.380;0.098;2022-09-09T05:41:52;29.27;;;10.15;;
63259;SDS011;49390;51.380;0.098;2022-09-09T05:44:21;34.40;;;10.50;;
63259;SDS011;49390;51.380;0.098;2022-09-09T05:46:53;30.70;;;11.43;;
63259;SDS011;49390;51.380;0.098;2022-09-09T05:49:22;28.90;;;10.23;;
63259;SDS011;49390;51.380;0.098;2022-09-09T05:51:50;31.70;;;10.07;;
63259;SDS011;49390;51.380;0.098;2022-09-09T05:54:22;34.80;;;11.95;;
63259;SDS011;49390;51.380;0.098;2022-09-09T05:56:52;32.33;;;10.32;;
63259;SDS011;49390;51.380;0.098;2022-09-09T05:59:22;29.13;;;10.95;;
63259;SDS011;49390;51.380;0.098;2022-09-09T06:04:28;29.80;;;12.50;;
63259;SDS011;49390;51.380;0.098;2022-09-09T06:09:31;32.20;;;10.82;;
63259;SDS011;49390;51.380;0.098;2022-09-09T06:11:59;36.95;;;12.93;;
63259;SDS011;49390;51.380;0.098;2022-09-09T06:14:55;35.08;;;11.40;;
63259;SDS011;49390;51.380;0.098;2022-09-09T06:17:24;32.08;;;10.45;;
63259;SDS011;49390;51.380;0.098;2022-09-09T06:19:52;35.15;;;10.90;;
63259;SDS011;49390;51.380;0.098;2022-09-09T06:22:20;36.25;;;12.68;;
63259;SDS011;49390;51.380;0.098;2022-09-09T06:24:49;32.15;;;11.10;;
63259;SDS011;49390;51.380;0.098;2022-09-09T06:27:18;33.13;;;11.38;;
63259;SDS011;49390;51.380;0.098;2022-09-09T06:29:47;33.33;;;11.77;;
63259;SDS011;49390;51.380;0.098;2022-09-09T06:32:16;31.77;;;11.80;;
63259;SDS011;49390;51.380;0.098;2022-09-09T06:34:45;37.42;;;11.25;;
63259;SDS011;49390;51.380;0.098;2022-09-09T06:37:14;36.80;;;11.32;;
63259;SDS011;49390;51.380;0.098;2022-09-09T06:39:47;27.38;;;10.10;;
63259;SDS011;49390;51.380;0.098;2022-09-09T06:42:17;33.80;;;10.60;;
63259;SDS011;49390;51.380;0.098;2022-09-09T06:44:54;28.58;;;10.38;;
63259;SDS011;49390;51.380;0.098;2022-09-09T06:47:32;34.15;;;10.02;;
63259;SDS011;49390;51.380;0.098;2022-09-09T06:50:01;32.55;;;10.73;;
63259;SDS011;49390;51.380;0.098;2022-09-09T06:52:33;34.20;;;10.43;;
63259;SDS011;49390;51.380;0.098;2022-09-09T06:55:03;28.58;;;9.70;;
63259;SDS011;49390;51.380;0.098;2022-09-09T06:57:33;27.10;;;9.20;;
63259;SDS011;49390;51.380;0.098;2022-09-09T07:00:13;26.00;;;9.45;;
63259;SDS011;49390;51.380;0.098;2022-09-09T07:02:41;25.40;;;8.93;;
63259;SDS011;49390;51.380;0.098;2022-09-09T07:05:11;26.67;;;9.00;;
63259;SDS011;49390;51.380;0.098;2022-09-09T07:07:42;28.95;;;9.35;;
63259;SDS011;49390;51.380;0.098;2022-09-09T07:10:12;25.10;;;8.90;;
63259;SDS011;49390;51.380;0.098;2022-09-09T07:12:52;27.02;;;8.90;;
63259;SDS011;49390;51.380;0.098;2022-09-09T07:15:24;22.05;;;8.60;;
63259;SDS011;49390;51.380;0.098;2022-09-09T07:17:53;23.90;;;9.10;;
63259;SDS011;49390;51.380;0.098;2022-09-09T07:20:22;27.02;;;9.23;;
63259;SDS011;49390;51.380;0.098;2022-09-09T07:22:54;22.52;;;9.50;;
63259;SDS011;49390;51.380;0.098;2022-09-09T07:25:23;25.65;;;9.60;;
63259;SDS011;49390;51.380;0.098;2022-09-09T07:27:52;27.48;;;9.38;;
63259;SDS011;49390;51.380;0.098;2022-09-09T07:30:21;27.02;;;9.35;;
63259;SDS011;49390;51.380;0.098;2022-09-09T07:32:54;26.42;;;9.88;;
63259;SDS011;49390;51.380;0.098;2022-09-09T07:35:24;25.55;;;9.48;;
63259;SDS011;49390;51.380;0.098;2022-09-09T07:37:52;22.25;;;9.57;;
63259;SDS011;49390;51.380;0.098;2022-09-09T07:40:20;25.58;;;9.40;;
63259;SDS011;49390;51.380;0.098;2022-09-09T07:42:50;26.15;;;9.82;;
63259;SDS011;49390;51.380;0.098;2022-09-09T07:45:18;25.88;;;9.48;;
63259;SDS011;49390;51.380;0.098;2022-09-09T07:47:46;23.92;;;10.07;;
63259;SDS011;49390;51.380;0.098;2022-09-09T07:50:17;26.45;;;9.38;;
63259;SDS011;49390;51.380;0.098;2022-09-09T07:52:46;25.38;;;10.38;;
63259;SDS011;49390;51.380;0.098;2022-09-09T07:55:14;22.80;;;10.18;;
63259;SDS011;49390;51.380;0.098;2022-09-09T07:57:43;26.10;;;9.85;;
63259;SDS011;49390;51.380;0.098;2022-09-09T08:00:11;21.52;;;9.07;;
63259;SDS011;49390;51.380;0.098;2022-09-09T08:02:48;22.13;;;8.48;;
63259;SDS011;49390;51.380;0.098;2022-09-09T08:05:17;31.38;;;9.75;;
63259;SDS011;49390;51.380;0.098;2022-09-09T08:07:45;24.77;;;8.77;;
63259;SDS011;49390;51.380;0.098;2022-09-09T08:10:14;25.45;;;9.02;;
63259;SDS011;49390;51.380;0.098;2022-09-09T08:12:45;19.90;;;8.55;;
63259;SDS011;49390;51.380;0.098;2022-09-09T08:15:34;19.20;;;8.10;;
63259;SDS011;49390;51.380;0.098;2022-09-09T08:18:03;20.45;;;8.15;;
63259;SDS011;49390;51.380;0.098;2022-09-09T08:20:31;25.17;;;8.02;;
63259;SDS011;49390;51.380;0.098;2022-09-09T08:22:59;22.85;;;7.88;;
63259;SDS011;49390;51.380;0.098;2022-09-09T08:25:27;23.02;;;8.60;;
63259;SDS011;49390;51.380;0.098;2022-09-09T08:27:56;21.70;;;8.55;;
63259;SDS011;49390;51.380;0.098;2022-09-09T08:30:24;17.42;;;8.10;;
63259;SDS011;49390;51.380;0.098;2022-09-09T08:32:54;18.15;;;8.45;;
63259;SDS011;49390;51.380;0.098;2022-09-09T08:35:22;22.90;;;9.85;;
63259;SDS011;49390;51.380;0.098;2022-09-09T08:37:53;20.45;;;9.15;;
63259;SDS011;49390;51.380;0.098;2022-09-09T08:40:25;21.13;;;8.40;;
63259;SDS011;49390;51.380;0.098;2022-09-09T08:43:00;24.70;;;9.57;;
63259;SDS011;49390;51.380;0.098;2022-09-09T08:45:37;23.50;;;9.07;;
63259;SDS011;49390;51.380;0.098;2022-09-09T08:48:26;23.95;;;10.45;;
63259;SDS011;49390;51.380;0.098;2022-09-09T08:51:11;25.40;;;10.63;;
63259;SDS011;49390;51.380;0.098;2022-09-09T08:53:43;23.70;;;11.33;;
63259;SDS011;49390;51.380;0.098;2022-09-09T08:56:18;27.48;;;12.75;;
63259;SDS011;49390;51.380;0.098;2022-09-09T08:58:56;27.17;;;11.70;;
63259;SDS011;49390;51.380;0.098;2022-09-09T09:13:10;26.23;;;11.05;;
63259;SDS011;49390;51.380;0.098;2022-09-09T09:15:42;29.10;;;11.40;;
63259;SDS011;49390;51.380;0.098;2022-09-09T09:18:16;35.05;;;13.30;;
63259;SDS011;49390;51.380;0.098;2022-09-09T09:20:54;29.95;;;12.02;;
63259;SDS011;49390;51.380;0.098;2022-09-09T09:23:57;23.35;;;11.25;;
63259;SDS011;49390;51.380;0.098;2022-09-09T09:26:33;28.02;;;11.85;;
63259;SDS011;49390;51.380;0.098;2022-09-09T09:29:12;30.92;;;12.80;;
63259;SDS011;49390;51.380;0.098;2022-09-09T09:31:53;27.70;;;13.40;;
63259;SDS011;49390;51.380;0.098;2022-09-09T09:34:26;28.40;;;13.57;;
63259;SDS011;49390;51.380;0.098;2022-09-09T09:36:57;30.73;;;13.57;;
63259;SDS011;49390;51.380;0.098;2022-09-09T09:39:32;33.33;;;13.70;;
63259;SDS011;49390;51.380;0.098;2022-09-09T09:42:26;36.03;;;14.10;;
63259;SDS011;49390;51.380;0.098;2022-09-09T09:45:06;29.95;;;12.32;;
63259;SDS011;49390;51.380;0.098;2022-09-09T09:47:36;30.50;;;13.93;;
63259;SDS011;49390;51.380;0.098;2022-09-09T09:50:16;35.17;;;13.50;;
63259;SDS011;49390;51.380;0.098;2022-09-09T09:52:59;31.40;;;12.73;;
63259;SDS011;49390;51.380;0.098;2022-09-09T09:55:32;35.78;;;13.80;;
63259;SDS011;49390;51.380;0.098;2022-09-09T09:58:03;38.47;;;14.40;;
63259;SDS011;49390;51.380;0.098;2022-09-09T10:00:36;35.00;;;14.07;;
63259;SDS011;49390;51.380;0.098;2022-09-09T10:03:24;39.50;;;14.23;;
63259;SDS011;49390;51.380;0.098;2022-09-09T10:05:54;36.47;;;14.68;;
63259;SDS011;49390;51.380;0.098;2022-09-09T10:08:25;37.38;;;14.10;;
63259;SDS011;49390;51.380;0.098;2022-09-09T10:19:01;45.50;;;16.85;;
63259;SDS011;49390;51.380;0.098;2022-09-09T10:21:59;41.00;;;16.00;;
63259;SDS011;49390;51.380;0.098;2022-09-09T10:24:44;42.85;;;16.15;;
63259;SDS011;49390;51.380;0.098;2022-09-09T10:36:26;36.83;;;15.18;;
63259;SDS011;49390;51.380;0.098;2022-09-09T10:39:08;41.72;;;15.05;;
63259;SDS011;49390;51.380;0.098;2022-09-09T10:42:30;34.70;;;13.95;;
63259;SDS011;49390;51.380;0.098;2022-09-09T10:48:23;40.38;;;15.23;;
63259;SDS011;49390;51.380;0.098;2022-09-09T10:56:58;32.78;;;13.80;;
63259;SDS011;49390;51.380;0.098;2022-09-09T10:59:34;33.88;;;14.35;;
63259;SDS011;49390;51.380;0.098;2022-09-09T11:02:27;36.35;;;14.35;;
63259;SDS011;49390;51.380;0.098;2022-09-09T11:04:58;33.25;;;14.00;;
63259;SDS011;49390;51.380;0.098;2022-09-09T11:07:29;42.78;;;15.30;;
63259;SDS011;49390;51.380;0.098;2022-09-09T11:14:40;37.63;;;15.52;;
63259;SDS011;49390;51.380;0.098;2022-09-09T11:17:18;39.50;;;16.20;;
63259;SDS011;49390;51.380;0.098;2022-09-09T11:19:52;35.22;;;14.68;;
63259;SDS011;49390;51.380;0.098;2022-09-09T11:22:30;35.03;;;14.00;;
63259;SDS011;49390;51.380;0.098;2022-09-09T11:39:23;16.67;;;8.70;;
63259;SDS011;49390;51.380;0.098;2022-09-09T11:42:22;17.83;;;9.40;;
63259;SDS011;49390;51.380;0.098;2022-09-09T11:44:52;16.58;;;8.98;;
63259;SDS011;49390;51.380;0.098;2022-09-09T11:47:29;18.88;;;8.90;;
63259;SDS011;49390;51.380;0.098;2022-09-09T11:52:45;22.30;;;10.98;;
63259;SDS011;49390;51.380;0.098;2022-09-09T11:55:34;16.85;;;8.20;;
63259;SDS011;49390;51.380;0.098;2022-09-09T11:58:04;17.98;;;9.57;;
63259;SDS011;49390;51.380;0.098;2022-09-09T12:00:46;14.30;;;7.30;;
63259;SDS011;49390;51.380;0.098;2022-09-09T12:06:30;18.02;;;7.30;;
63259;SDS011;49390;51.380;0.098;2022-09-09T12:12:28;15.68;;;7.63;;
63259;SDS011;49390;51.380;0.098;2022-09-09T12:17:57;15.25;;;7.90;;
63259;SDS011;49390;51.380;0.098;2022-09-09T12:23:42;15.25;;;7.95;;
63259;SDS011;49390;51.380;0.098;2022-09-09T12:26:01;15.60;;;6.90;;
63259;SDS011;49390;51.380;0.098;2022-09-09T12:34:02;20.67;;;8.25;;
63259;SDS011;49390;51.380;0.098;2022-09-09T12:36:47;14.07;;;7.40;;
63259;SDS011;49390;51.380;0.098;2022-09-09T12:39:34;16.25;;;7.55;;
63259;SDS011;49390;51.380;0.098;2022-09-09T12:42:16;17.40;;;7.50;;
63259;SDS011;49390;51.380;0.098;2022-09-09T12:44:50;14.30;;;6.97;;
63259;SDS011;49390;51.380;0.098;2022-09-09T12:47:22;13.40;;;6.85;;
63259;SDS011;49390;51.380;0.098;2022-09-09T12:49:59;20.30;;;6.90;;
63259;SDS011;49390;51.380;0.098;2022-09-09T12:55:00;11.07;;;6.03;;
63259;SDS011;49390;51.380;0.098;2022-09-09T12:57:35;12.20;;;6.15;;
63259;SDS011;49390;51.380;0.098;2022-09-09T13:00:17;13.25;;;6.18;;
63259;SDS011;49390;51.380;0.098;2022-09-09T13:05:24;12.50;;;6.30;;
63259;SDS011;49390;51.380;0.098;2022-09-09T13:08:21;10.93;;;5.72;;
63259;SDS011;49390;51.380;0.098;2022-09-09T13:11:04;10.95;;;6.00;;
63259;SDS011;49390;51.380;0.098;2022-09-09T13:13:38;10.35;;;5.68;;
63259;SDS011;49390;51.380;0.098;2022-09-09T13:19:13;11.60;;;5.63;;
63259;SDS011;49390;51.380;0.098;2022-09-09T13:21:46;11.98;;;5.85;;
63259;SDS011;49390;51.380;0.098;2022-09-09T13:24:32;10.10;;;5.65;;
63259;SDS011;49390;51.380;0.098;2022-09-09T13:27:20;13.70;;;5.88;;
63259;SDS011;49390;51.380;0.098;2022-09-09T13:29:54;10.27;;;5.25;;
63259;SDS011;49390;51.380;0.098;2022-09-09T13:32:24;10.40;;;5.07;;
63259;SDS011;49390;51.380;0.098;2022-09-09T13:34:59;10.65;;;5.05;;
63259;SDS011;49390;51.380;0.098;2022-09-09T13:40:17;9.15;;;5.07;;
63259;SDS011;49390;51.380;0.098;2022-09-09T13:42:54;13.30;;;5.10;;
63259;SDS011;49390;51.380;0.098;2022-09-09T13:45:24;11.32;;;5.40;;
63259;SDS011;49390;51.380;0.098;2022-09-09T13:47:54;11.23;;;5.28;;
63259;SDS011;49390;51.380;0.098;2022-09-09T13:50:41;10.38;;;5.07;;
63259;SDS011;49390;51.380;0.098;2022-09-09T13:53:10;12.43;;;5.20;;
63259;SDS011;49390;51.380;0.098;2022-09-09T13:55:38;10.13;;;5.28;;
63259;SDS011;49390;51.380;0.098;2022-09-09T13:58:14;11.20;;;5.45;;
63259;SDS011;49390;51.380;0.098;2022-09-09T14:00:46;11.55;;;5.63;;
63259;SDS011;49390;51.380;0.098;2022-09-09T14:03:17;10.15;;;5.70;;
63259;SDS011;49390;51.380;0.098;2022-09-09T14:05:47;10.80;;;5.63;;
63259;SDS011;49390;51.380;0.098;2022-09-09T14:08:22;11.50;;;6.13;;
63259;SDS011;49390;51.380;0.098;2022-09-09T14:10:57;14.15;;;6.18;;
63259;SDS011;49390;51.380;0.098;2022-09-09T14:13:26;10.02;;;5.28;;
63259;SDS011;49390;51.380;0.098;2022-09-09T14:15:54;13.82;;;5.43;;
63259;SDS011;49390;51.380;0.098;2022-09-09T14:18:23;11.70;;;5.60;;
63259;SDS011;49390;51.380;0.098;2022-09-09T14:20:53;13.73;;;5.85;;
63259;SDS011;49390;51.380;0.098;2022-09-09T14:23:21;10.30;;;4.80;;
63259;SDS011;49390;51.380;0.098;2022-09-09T14:25:51;9.57;;;5.10;;
63259;SDS011;49390;51.380;0.098;2022-09-09T14:28:20;9.23;;;5.18;;
63259;SDS011;49390;51.380;0.098;2022-09-09T14:31:08;10.07;;;4.72;;
63259;SDS011;49390;51.380;0.098;2022-09-09T14:33:40;8.95;;;4.97;;
63259;SDS011;49390;51.380;0.098;2022-09-09T14:36:08;9.70;;;4.53;;
63259;SDS011;49390;51.380;0.098;2022-09-09T14:38:40;9.73;;;4.50;;
63259;SDS011;49390;51.380;0.098;2022-09-09T14:41:10;7.05;;;4.35;;
63259;SDS011;49390;51.380;0.098;2022-09-09T14:44:03;9.68;;;4.90;;
63259;SDS011;49390;51.380;0.098;2022-09-09T14:46:33;14.23;;;5.05;;
63259;SDS011;49390;51.380;0.098;2022-09-09T14:51:23;13.45;;;5.20;;
63259;SDS011;49390;51.380;0.098;2022-09-09T14:53:54;11.13;;;5.28;;
63259;SDS011;49390;51.380;0.098;2022-09-09T14:56:26;9.07;;;4.68;;
63259;SDS011;49390;51.380;0.098;2022-09-09T14:58:57;13.50;;;5.60;;
63259;SDS011;49390;51.380;0.098;2022-09-09T15:01:28;11.68;;;5.03;;
63259;SDS011;49390;51.380;0.098;2022-09-09T15:04:02;10.77;;;4.82;;
63259;SDS011;49390;51.380;0.098;2022-09-09T15:06:35;8.82;;;4.30;;
63259;SDS011;49390;51.380;0.098;2022-09-09T15:09:07;7.18;;;4.18;;
63259;SDS011;49390;51.380;0.098;2022-09-09T15:11:35;9.13;;;4.45;;
63259;SDS011;49390;51.380;0.098;2022-09-09T15:14:05;8.30;;;3.90;;
63259;SDS011;49390;51.380;0.098;2022-09-09T15:16:36;8.98;;;3.78;;
63259;SDS011;49390;51.380;0.098;2022-09-09T15:19:08;6.28;;;3.35;;
63259;SDS011;49390;51.380;0.098;2022-09-09T15:21:40;6.65;;;3.50;;
63259;SDS011;49390;51.380;0.098;2022-09-09T15:24:08;10.35;;;3.88;;
63259;SDS011;49390;51.380;0.098;2022-09-09T15:26:37;12.98;;;3.80;;
63259;SDS011;49390;51.380;0.098;2022-09-09T15:29:08;8.03;;;3.77;;
63259;SDS011;49390;51.380;0.098;2022-09-09T15:31:38;8.07;;;3.75;;
63259;SDS011;49390;51.380;0.098;2022-09-09T15:34:06;8.05;;;3.50;;
63259;SDS011;49390;51.380;0.098;2022-09-09T15:36:43;7.05;;;3.85;;
63259;SDS011;49390;51.380;0.098;2022-09-09T15:39:16;8.35;;;3.33;;
63259;SDS011;49390;51.380;0.098;2022-09-09T15:41:47;6.10;;;2.95;;
63259;SDS011;49390;51.380;0.098;2022-09-09T15:44:16;6.50;;;3.17;;
63259;SDS011;49390;51.380;0.098;2022-09-09T15:46:45;7.63;;;3.63;;
63259;SDS011;49390;51.380;0.098;2022-09-09T15:49:22;6.07;;;3.10;;
63259;SDS011;49390;51.380;0.098;2022-09-09T15:54:23;6.65;;;3.50;;
63259;SDS011;49390;51.380;0.098;2022-09-09T15:56:54;8.77;;;3.33;;
63259;SDS011;49390;51.380;0.098;2022-09-09T15:59:27;6.18;;;3.25;;
63259;SDS011;49390;51.380;0.098;2022-09-09T16:01:59;7.35;;;3.58;;
63259;SDS011;49390;51.380;0.098;2022-09-09T16:04:33;11.45;;;3.60;;
63259;SDS011;49390;51.380;0.098;2022-09-09T16:07:02;14.23;;;4.22;;
63259;SDS011;49390;51.380;0.098;2022-09-09T16:09:33;14.80;;;5.10;;
63259;SDS011;49390;51.380;0.098;2022-09-09T16:12:03;18.20;;;5.90;;
63259;SDS011;49390;51.380;0.098;2022-09-09T16:14:38;17.90;;;5.18;;
63259;SDS011;49390;51.380;0.098;2022-09-09T16:17:07;10.27;;;3.65;;
63259;SDS011;49390;51.380;0.098;2022-09-09T16:19:36;7.85;;;3.28;;
63259;SDS011;49390;51.380;0.098;2022-09-09T16:22:05;7.60;;;3.58;;
63259;SDS011;49390;51.380;0.098;2022-09-09T16:24:35;7.50;;;3.70;;
63259;SDS011;49390;51.380;0.098;2022-09-09T16:27:03;7.25;;;3.80;;
63259;SDS011;49390;51.380;0.098;2022-09-09T16:29:32;8.30;;;4.18;;
63259;SDS011;49390;51.380;0.098;2022-09-09T16:32:00;10.25;;;4.47;;
63259;SDS011;49390;51.380;0.098;2022-09-09T16:34:30;10.25;;;4.80;;
63259;SDS011;49390;51.380;0.098;2022-09-09T16:37:01;12.18;;;5.40;;
63259;SDS011;49390;51.380;0.098;2022-09-09T16:39:32;13.00;;;5.18;;
63259;SDS011;49390;51.380;0.098;2022-09-09T16:42:00;11.10;;;4.93;;
63259;SDS011;49390;51.380;0.098;2022-09-09T16:44:30;10.40;;;4.30;;
63259;SDS011;49390;51.380;0.098;2022-09-09T16:46:59;12.15;;;5.20;;
63259;SDS011;49390;51.380;0.098;2022-09-09T16:49:29;13.43;;;5.47;;
63259;SDS011;49390;51.380;0.098;2022-09-09T16:52:01;11.73;;;5.30;;
63259;SDS011;49390;51.380;0.098;2022-09-09T16:54:29;14.15;;;5.38;;
63259;SDS011;49390;51.380;0.098;2022-09-09T16:56:59;13.07;;;6.22;;
63259;SDS011;49390;51.380;0.098;2022-09-09T16:59:28;13.95;;;6.43;;
63259;SDS011;49390;51.380;0.098;2022-09-09T17:01:56;12.48;;;6.05;;
63259;SDS011;49390;51.380;0.098;2022-09-09T17:04:26;13.40;;;6.25;;
63259;SDS011;49390;51.380;0.098;2022-09-09T17:06:55;14.80;;;7.43;;
63259;SDS011;49390;51.380;0.098;2022-09-09T17:09:26;12.93;;;6.50;;
63259;SDS011;49390;51.380;0.098;2022-09-09T17:11:59;14.93;;;7.07;;
63259;SDS011;49390;51.380;0.098;2022-09-09T17:14:29;16.92;;;7.00;;
63259;SDS011;49390;51.380;0.098;2022-09-09T17:16:58;14.77;;;7.33;;
63259;SDS011;49390;51.380;0.098;2022-09-09T17:19:54;16.35;;;7.50;;
63259;SDS011;49390;51.380;0.098;2022-09-09T17:22:26;20.33;;;7.60;;
63259;SDS011;49390;51.380;0.098;2022-09-09T17:24:54;16.65;;;8.02;;
63259;SDS011;49390;51.380;0.098;2022-09-09T17:27:23;16.23;;;8.27;;
63259;SDS011;49390;51.380;0.098;2022-09-09T17:29:52;16.65;;;7.95;;
63259;SDS011;49390;51.380;0.098;2022-09-09T17:32:20;16.52;;;8.07;;